sensor_id;sensor_type;location;lat;lon;timestamp;P1;durP1;ratioP1;P2;durP2;ratioP2
71955;SDS011;59829;50.562;6.258;2023-07-24T00:09:26;2.88;;;1.20;;
71955;SDS011;59829;50.562;6.258;2023-07-24T00:19:26;3.65;;;1.40;;
71955;SDS011;59829;50.562;6.258;2023-07-24T00:29:27;1.88;;;1.20;;
71955;SDS011;59829;50.562;6.258;2023-07-24T00:39:27;1.88;;;1.10;;
71955;SDS011;59829;50.562;6.258;2023-07-24T00:49:29;1.83;;;1.30;;
71955;SDS011;59829;50.562;6.258;2023-07-24T00:59:29;1.52;;;1.20;;
71955;SDS011;59829;50.562;6.258;2023-07-24T01:09:30;2.22;;;1.48;;
71955;SDS011;59829;50.562;6.258;2023-07-24T01:19:38;2.00;;;1.08;;
71955;SDS011;59829;50.562;6.258;2023-07-24T01:29:42;2.10;;;1.15;;
71955;SDS011;59829;50.562;6.258;2023-07-24T01:39:43;1.63;;;1.10;;
71955;SDS011;59829;50.562;6.258;2023-07-24T01:49:44;3.67;;;1.70;;
71955;SDS011;59829;50.562;6.258;2023-07-24T01:59:44;3.25;;;1.35;;
71955;SDS011;59829;50.562;6.258;2023-07-24T02:09:45;2.65;;;1.40;;
71955;SDS011;59829;50.562;6.258;2023-07-24T02:19:45;3.00;;;1.45;;
71955;SDS011;59829;50.562;6.258;2023-07-24T02:29:46;3.78;;;1.60;;
71955;SDS011;59829;50.562;6.258;2023-07-24T02:39:46;2.70;;;1.40;;
71955;SDS011;59829;50.562;6.258;2023-07-24T02:49:46;3.40;;;1.70;;
71955;SDS011;59829;50.562;6.258;2023-07-24T02:59:47;3.08;;;1.48;;
71955;SDS011;59829;50.562;6.258;2023-07-24T03:09:47;2.70;;;1.48;;
71955;SDS011;59829;50.562;6.258;2023-07-24T03:19:48;2.63;;;1.35;;
71955;SDS011;59829;50.562;6.258;2023-07-24T03:29:49;2.42;;;1.40;;
71955;SDS011;59829;50.562;6.258;2023-07-24T03:39:49;3.60;;;1.70;;
71955;SDS011;59829;50.562;6.258;2023-07-24T03:49:49;2.75;;;1.48;;
71955;SDS011;59829;50.562;6.258;2023-07-24T03:59:50;2.50;;;1.45;;
71955;SDS011;59829;50.562;6.258;2023-07-24T04:09:50;3.30;;;1.65;;
71955;SDS011;59829;50.562;6.258;2023-07-24T04:19:51;3.40;;;1.70;;
71955;SDS011;59829;50.562;6.258;2023-07-24T04:29:51;2.80;;;1.30;;
71955;SDS011;59829;50.562;6.258;2023-07-24T04:39:52;2.83;;;1.42;;
71955;SDS011;59829;50.562;6.258;2023-07-24T04:49:52;3.33;;;1.50;;
71955;SDS011;59829;50.562;6.258;2023-07-24T04:59:52;3.45;;;1.60;;
71955;SDS011;59829;50.562;6.258;2023-07-24T05:09:52;2.78;;;1.48;;
71955;SDS011;59829;50.562;6.258;2023-07-24T05:19:53;4.25;;;1.77;;
71955;SDS011;59829;50.562;6.258;2023-07-24T05:29:53;2.88;;;1.50;;
71955;SDS011;59829;50.562;6.258;2023-07-24T05:39:53;2.85;;;1.42;;
71955;SDS011;59829;50.562;6.258;2023-07-24T05:49:54;1.95;;;1.30;;
71955;SDS011;59829;50.562;6.258;2023-07-24T05:59:54;2.75;;;1.42;;
71955;SDS011;59829;50.562;6.258;2023-07-24T06:09:56;2.57;;;1.30;;
71955;SDS011;59829;50.562;6.258;2023-07-24T06:19:56;2.63;;;1.23;;
71955;SDS011;59829;50.562;6.258;2023-07-24T06:29:56;2.80;;;1.33;;
71955;SDS011;59829;50.562;6.258;2023-07-24T06:39:57;3.25;;;1.50;;
71955;SDS011;59829;50.562;6.258;2023-07-24T06:49:57;2.97;;;1.50;;
71955;SDS011;59829;50.562;6.258;2023-07-24T06:59:57;2.15;;;1.13;;
71955;SDS011;59829;50.562;6.258;2023-07-24T07:09:58;2.72;;;1.30;;
71955;SDS011;59829;50.562;6.258;2023-07-24T07:19:58;2.13;;;1.30;;
71955;SDS011;59829;50.562;6.258;2023-07-24T07:29:58;2.95;;;1.40;;
71955;SDS011;59829;50.562;6.258;2023-07-24T07:39:58;2.97;;;1.33;;
71955;SDS011;59829;50.562;6.258;2023-07-24T07:49:59;2.97;;;1.40;;
71955;SDS011;59829;50.562;6.258;2023-07-24T07:59:59;2.85;;;1.45;;
71955;SDS011;59829;50.562;6.258;2023-07-24T08:09:59;2.58;;;1.40;;
71955;SDS011;59829;50.562;6.258;2023-07-24T08:20:00;1.95;;;1.00;;
71955;SDS011;59829;50.562;6.258;2023-07-24T08:30:00;2.15;;;1.13;;
71955;SDS011;59829;50.562;6.258;2023-07-24T08:40:00;2.00;;;1.20;;
71955;SDS011;59829;50.562;6.258;2023-07-24T08:50:01;0.95;;;0.60;;
71955;SDS011;59829;50.562;6.258;2023-07-24T09:00:02;2.22;;;1.30;;
71955;SDS011;59829;50.562;6.258;2023-07-24T09:10:05;2.17;;;1.10;;
71955;SDS011;59829;50.562;6.258;2023-07-24T09:20:06;1.50;;;0.82;;
71955;SDS011;59829;50.562;6.258;2023-07-24T09:30:14;3.17;;;1.30;;
71955;SDS011;59829;50.562;6.258;2023-07-24T09:40:15;1.73;;;1.05;;
71955;SDS011;59829;50.562;6.258;2023-07-24T09:50:15;1.90;;;1.00;;
71955;SDS011;59829;50.562;6.258;2023-07-24T10:00:15;2.47;;;1.02;;
71955;SDS011;59829;50.562;6.258;2023-07-24T10:10:16;1.67;;;1.08;;
71955;SDS011;59829;50.562;6.258;2023-07-24T10:20:17;1.58;;;0.90;;
71955;SDS011;59829;50.562;6.258;2023-07-24T10:30:27;2.20;;;1.00;;
71955;SDS011;59829;50.562;6.258;2023-07-24T10:40:29;1.52;;;0.82;;
71955;SDS011;59829;50.562;6.258;2023-07-24T10:50:40;1.57;;;0.60;;
71955;SDS011;59829;50.562;6.258;2023-07-24T11:00:44;1.33;;;0.52;;
71955;SDS011;59829;50.562;6.258;2023-07-24T11:10:48;0.57;;;0.38;;
71955;SDS011;59829;50.562;6.258;2023-07-24T11:20:53;0.98;;;0.43;;
71955;SDS011;59829;50.562;6.258;2023-07-24T11:30:55;0.70;;;0.50;;
71955;SDS011;59829;50.562;6.258;2023-07-24T11:41:02;1.88;;;0.45;;
71955;SDS011;59829;50.562;6.258;2023-07-24T11:51:02;0.47;;;0.30;;
71955;SDS011;59829;50.562;6.258;2023-07-24T12:01:03;0.63;;;0.30;;
71955;SDS011;59829;50.562;6.258;2023-07-24T12:11:03;0.60;;;0.40;;
71955;SDS011;59829;50.562;6.258;2023-07-24T12:21:03;0.63;;;0.47;;
71955;SDS011;59829;50.562;6.258;2023-07-24T12:31:04;1.58;;;0.68;;
71955;SDS011;59829;50.562;6.258;2023-07-24T12:41:04;0.57;;;0.50;;
71955;SDS011;59829;50.562;6.258;2023-07-24T12:51:04;0.75;;;0.43;;
71955;SDS011;59829;50.562;6.258;2023-07-24T13:01:05;0.90;;;0.50;;
71955;SDS011;59829;50.562;6.258;2023-07-24T13:11:06;1.43;;;0.60;;
71955;SDS011;59829;50.562;6.258;2023-07-24T13:21:06;0.77;;;0.45;;
71955;SDS011;59829;50.562;6.258;2023-07-24T13:31:26;0.90;;;0.50;;
71955;SDS011;59829;50.562;6.258;2023-07-24T13:41:28;0.40;;;0.30;;
71955;SDS011;59829;50.562;6.258;2023-07-24T13:51:28;1.27;;;0.47;;
71955;SDS011;59829;50.562;6.258;2023-07-24T14:01:29;0.40;;;0.30;;
71955;SDS011;59829;50.562;6.258;2023-07-24T14:11:29;0.50;;;0.30;;
71955;SDS011;59829;50.562;6.258;2023-07-24T14:21:30;0.50;;;0.40;;
71955;SDS011;59829;50.562;6.258;2023-07-24T14:31:31;0.90;;;0.38;;
71955;SDS011;59829;50.562;6.258;2023-07-24T14:41:31;0.80;;;0.30;;
71955;SDS011;59829;50.562;6.258;2023-07-24T14:51:32;0.93;;;0.40;;
71955;SDS011;59829;50.562;6.258;2023-07-24T15:01:32;0.88;;;0.68;;
71955;SDS011;59829;50.562;6.258;2023-07-24T15:11:33;1.63;;;0.80;;
71955;SDS011;59829;50.562;6.258;2023-07-24T15:21:33;1.73;;;1.00;;
71955;SDS011;59829;50.562;6.258;2023-07-24T15:31:33;0.90;;;0.65;;
71955;SDS011;59829;50.562;6.258;2023-07-24T15:41:36;1.80;;;0.77;;
71955;SDS011;59829;50.562;6.258;2023-07-24T15:51:36;1.70;;;1.10;;
71955;SDS011;59829;50.562;6.258;2023-07-24T16:01:37;1.58;;;0.80;;
71955;SDS011;59829;50.562;6.258;2023-07-24T16:11:37;0.93;;;0.60;;
71955;SDS011;59829;50.562;6.258;2023-07-24T16:21:37;1.27;;;0.55;;
71955;SDS011;59829;50.562;6.258;2023-07-24T16:31:38;1.10;;;0.60;;
71955;SDS011;59829;50.562;6.258;2023-07-24T16:41:38;1.48;;;0.80;;
71955;SDS011;59829;50.562;6.258;2023-07-24T16:51:39;0.77;;;0.40;;
71955;SDS011;59829;50.562;6.258;2023-07-24T17:01:39;0.98;;;0.40;;
71955;SDS011;59829;50.562;6.258;2023-07-24T17:11:39;0.50;;;0.40;;
71955;SDS011;59829;50.562;6.258;2023-07-24T17:21:40;0.68;;;0.60;;
71955;SDS011;59829;50.562;6.258;2023-07-24T17:31:40;0.40;;;0.32;;
71955;SDS011;59829;50.562;6.258;2023-07-24T17:51:42;0.98;;;0.20;;
71955;SDS011;59829;50.562;6.258;2023-07-24T18:01:43;0.85;;;0.30;;
71955;SDS011;59829;50.562;6.258;2023-07-24T18:11:43;0.57;;;0.40;;
71955;SDS011;59829;50.562;6.258;2023-07-24T18:21:43;1.88;;;0.45;;
71955;SDS011;59829;50.562;6.258;2023-07-24T18:31:44;1.65;;;1.00;;
71955;SDS011;59829;50.562;6.258;2023-07-24T18:41:45;3.17;;;1.30;;
71955;SDS011;59829;50.562;6.258;2023-07-24T18:51:46;2.55;;;1.30;;
71955;SDS011;59829;50.562;6.258;2023-07-24T19:01:46;1.58;;;0.90;;
71955;SDS011;59829;50.562;6.258;2023-07-24T19:11:47;0.65;;;0.60;;
71955;SDS011;59829;50.562;6.258;2023-07-24T19:21:47;1.17;;;0.60;;
71955;SDS011;59829;50.562;6.258;2023-07-24T19:31:47;0.70;;;0.50;;
71955;SDS011;59829;50.562;6.258;2023-07-24T19:41:49;1.40;;;0.93;;
71955;SDS011;59829;50.562;6.258;2023-07-24T19:51:51;0.88;;;0.80;;
71955;SDS011;59829;50.562;6.258;2023-07-24T20:01:52;0.75;;;0.70;;
71955;SDS011;59829;50.562;6.258;2023-07-24T20:11:53;1.65;;;1.20;;
71955;SDS011;59829;50.562;6.258;2023-07-24T20:21:53;1.63;;;1.20;;
71955;SDS011;59829;50.562;6.258;2023-07-24T20:31:54;2.03;;;1.20;;
71955;SDS011;59829;50.562;6.258;2023-07-24T20:41:54;2.30;;;1.27;;
71955;SDS011;59829;50.562;6.258;2023-07-24T20:51:54;2.03;;;1.30;;
71955;SDS011;59829;50.562;6.258;2023-07-24T21:01:55;1.92;;;1.25;;
71955;SDS011;59829;50.562;6.258;2023-07-24T21:11:55;1.90;;;1.40;;
71955;SDS011;59829;50.562;6.258;2023-07-24T21:21:56;3.22;;;1.80;;
71955;SDS011;59829;50.562;6.258;2023-07-24T21:31:57;2.78;;;1.70;;
71955;SDS011;59829;50.562;6.258;2023-07-24T21:41:58;3.00;;;1.95;;
71955;SDS011;59829;50.562;6.258;2023-07-24T21:51:58;3.13;;;2.10;;
71955;SDS011;59829;50.562;6.258;2023-07-24T22:02:00;3.17;;;1.97;;
71955;SDS011;59829;50.562;6.258;2023-07-24T22:12:00;3.75;;;2.47;;
71955;SDS011;59829;50.562;6.258;2023-07-24T22:22:01;4.07;;;2.57;;
71955;SDS011;59829;50.562;6.258;2023-07-24T22:32:01;3.40;;;2.33;;
71955;SDS011;59829;50.562;6.258;2023-07-24T22:42:02;3.73;;;2.23;;
71955;SDS011;59829;50.562;6.258;2023-07-24T22:52:03;5.18;;;2.55;;
71955;SDS011;59829;50.562;6.258;2023-07-24T23:02:05;3.13;;;2.15;;
71955;SDS011;59829;50.562;6.258;2023-07-24T23:12:05;2.88;;;2.03;;
71955;SDS011;59829;50.562;6.258;2023-07-24T23:22:06;3.87;;;2.37;;
71955;SDS011;59829;50.562;6.258;2023-07-24T23:32:06;4.35;;;2.53;;
71955;SDS011;59829;50.562;6.258;2023-07-24T23:42:07;4.68;;;2.80;;
71955;SDS011;59829;50.562;6.258;2023-07-24T23:52:08;4.30;;;2.78;;
